Time;durP1;ratioP1;P1;durP2;ratioP2;P2;SDS_P1;SDS_P2;PMS_P1;PMS_P2;Temp;Humidity;BMP_temperature;BMP_pressure;BME280_temperature;BME280_humidity;BME280_pressure;Samples;Min_cycle;Max_cycle;Signal;HPM_P1;HPM_P2
2023/10/21 00:00:40;;;;;;;78.28;38.98;;;;;;;12.90;100.00;98998.16;1782970;80;21086;-70
2023/10/21 00:03:09;;;;;;;75.37;39.33;;;;;;;12.90;100.00;98988.54;1782946;80;20999;-70
2023/10/21 00:05:38;;;;;;;75.50;37.48;;;;;;;12.91;100.00;98991.58;1782970;80;21062;-70
2023/10/21 00:08:08;;;;;;;70.80;37.13;;;;;;;12.91;100.00;98985.55;1782800;80;21109;-70
2023/10/21 00:10:38;;;;;;;65.55;36.55;;;;;;;12.89;100.00;98984.95;1782993;80;21035;-70
2023/10/21 00:13:06;;;;;;;68.25;36.03;;;;;;;12.88;100.00;98983.83;1783024;80;21031;-70
2023/10/21 00:15:37;;;;;;;67.10;36.65;;;;;;;12.88;100.00;98989.33;1782654;80;21484;-70
2023/10/21 00:18:05;;;;;;;70.65;37.83;;;;;;;12.89;100.00;99000.62;1783016;80;21039;-70
2023/10/21 00:20:34;;;;;;;66.50;35.85;;;;;;;12.89;100.00;99004.20;1770906;80;21047;-70
2023/10/21 00:23:02;;;;;;;67.42;35.98;;;;;;;12.89;100.00;99009.70;1761479;81;21515;-68
2023/10/21 00:25:31;;;;;;;64.15;35.80;;;;;;;12.91;100.00;98992.95;1761598;81;21038;-70
2023/10/21 00:28:00;;;;;;;66.97;35.15;;;;;;;12.92;100.00;98997.38;1761647;81;21078;-68
2023/10/21 00:30:29;;;;;;;67.05;37.48;;;;;;;12.92;100.00;98998.20;1761586;81;21022;-70
2023/10/21 00:32:58;;;;;;;72.00;36.53;;;;;;;12.92;100.00;98999.58;1761827;81;21042;-68
2023/10/21 00:35:27;;;;;;;71.35;36.85;;;;;;;12.93;100.00;98997.13;1761575;80;21042;-69
2023/10/21 00:37:55;;;;;;;67.70;37.67;;;;;;;12.93;100.00;98988.88;1740656;81;21067;-71
2023/10/21 00:40:24;;;;;;;70.90;38.00;;;;;;;12.92;100.00;98973.47;1761628;80;21007;-70
2023/10/21 00:42:56;;;;;;;73.42;38.85;;;;;;;12.94;100.00;98969.92;1761501;81;21030;-69
2023/10/21 00:45:26;;;;;;;78.35;39.27;;;;;;;12.95;100.00;98976.26;1761726;81;20983;-70
2023/10/21 00:47:55;;;;;;;85.38;41.85;;;;;;;12.92;100.00;98981.71;1761602;81;20998;-69
2023/10/21 00:50:24;;;;;;;75.70;39.92;;;;;;;12.93;100.00;98984.75;1761794;81;21003;-70
2023/10/21 00:52:52;;;;;;;76.12;40.30;;;;;;;12.92;100.00;98998.20;1761508;81;21022;-70
2023/10/21 00:55:22;;;;;;;81.22;42.65;;;;;;;12.92;100.00;98996.83;1739690;81;21077;-68
2023/10/21 00:57:50;;;;;;;84.55;42.55;;;;;;;12.93;100.00;98991.62;1739002;81;21189;-70
2023/10/21 01:00:21;;;;;;;88.60;44.55;;;;;;;12.94;100.00;98981.46;1761554;80;21090;-70
2023/10/21 01:02:49;;;;;;;83.65;43.10;;;;;;;12.96;100.00;98988.92;1761560;81;21058;-70
2023/10/21 01:05:19;;;;;;;78.87;40.48;;;;;;;12.94;100.00;98985.05;1761676;81;21006;-71
2023/10/21 01:07:48;;;;;;;72.37;39.38;;;;;;;12.94;100.00;98986.42;1761693;80;21042;-70
2023/10/21 01:10:16;;;;;;;70.12;38.17;;;;;;;12.93;100.00;98996.29;1761695;81;20994;-69
2023/10/21 01:12:45;;;;;;;69.37;38.17;;;;;;;12.94;100.00;98993.30;1740803;81;21085;-70
2023/10/21 01:15:14;;;;;;;61.20;35.88;;;;;;;12.93;100.00;98991.62;1761614;81;20987;-70
2023/10/21 01:17:51;;;;;;;59.83;35.90;;;;;;;12.94;100.00;98986.96;1761395;81;21474;-69
2023/10/21 01:20:20;;;;;;;;;;;;;;;12.96;100.00;98997.17;1764078;81;21089;-68
2023/10/21 01:22:49;;;;;;;62.10;33.48;;;;;;;12.97;100.00;99002.42;1761774;81;20172;-70
2023/10/21 01:25:21;;;;;;;55.95;32.83;;;;;;;12.95;100.00;99008.70;1761529;81;21470;-69
2023/10/21 01:27:56;;;;;;;54.38;32.98;;;;;;;12.95;100.00;99012.83;1761511;81;21042;-71
2023/10/21 01:30:24;;;;;;;53.15;32.58;;;;;;;12.96;100.00;99014.50;1761618;81;21011;-70
2023/10/21 01:32:53;;;;;;;55.45;33.02;;;;;;;12.99;100.00;99022.25;1761530;80;21007;-71
2023/10/21 01:35:21;;;;;;;52.03;32.08;;;;;;;13.00;100.00;99015.70;1761735;80;21061;-70
2023/10/21 01:37:50;;;;;;;49.58;31.35;;;;;;;13.04;100.00;99020.70;1761657;81;21059;-69
2023/10/21 01:40:20;;;;;;;48.73;31.07;;;;;;;13.06;100.00;99017.17;1761711;81;21489;-69
2023/10/21 01:42:49;;;;;;;50.12;31.95;;;;;;;13.03;100.00;99012.17;1761678;81;21003;-70
2023/10/21 01:45:18;;;;;;;46.15;31.45;;;;;;;13.02;100.00;99018.20;1761787;81;21061;-69
2023/10/21 01:47:46;;;;;;;51.95;32.03;;;;;;;13.00;100.00;99018.97;1761733;81;21051;-70
2023/10/21 01:50:15;;;;;;;51.83;31.70;;;;;;;12.99;100.00;99025.00;1761692;81;21015;-69
2023/10/21 01:52:44;;;;;;;50.25;31.77;;;;;;;13.01;100.00;99034.41;1761739;81;21014;-70
2023/10/21 01:55:13;;;;;;;52.23;31.12;;;;;;;13.02;100.00;99030.58;1761593;81;21064;-69
2023/10/21 01:57:41;;;;;;;51.40;31.45;;;;;;;13.02;100.00;99034.70;1761512;81;21051;-69
2023/10/21 02:00:12;;;;;;;50.30;30.30;;;;;;;13.01;100.00;99024.25;1761733;81;21090;-71
2023/10/21 02:02:40;;;;;;;51.20;30.27;;;;;;;13.00;100.00;99026.70;1761799;81;21054;-71
2023/10/21 02:05:09;;;;;;;51.53;32.23;;;;;;;12.98;100.00;99017.84;1761606;81;21473;-70
2023/10/21 02:07:38;;;;;;;45.12;30.35;;;;;;;12.98;100.00;99017.84;1761497;81;21489;-68
2023/10/21 02:10:07;;;;;;;48.52;30.85;;;;;;;12.96;100.00;99028.24;1761563;81;21007;-69
2023/10/21 02:12:36;;;;;;;48.28;31.62;;;;;;;12.96;100.00;99028.78;1761621;81;21019;-68
2023/10/21 02:15:11;;;;;;;49.48;31.20;;;;;;;12.94;100.00;99030.41;1761647;81;21030;-71
2023/10/21 02:17:39;;;;;;;50.75;31.23;;;;;;;12.92;100.00;99036.70;1761758;81;21492;-69
2023/10/21 02:20:12;;;;;;;49.63;31.30;;;;;;;12.92;100.00;99035.32;1761534;80;21058;-70
2023/10/21 02:22:40;;;;;;;47.10;30.50;;;;;;;12.93;100.00;99040.28;1761760;81;21022;-70
2023/10/21 02:25:13;;;;;;;51.37;30.23;;;;;;;12.92;100.00;99039.98;1741028;81;21026;-71
2023/10/21 02:27:44;;;;;;;49.18;30.57;;;;;;;12.92;100.00;99028.45;1761745;81;21030;-71
2023/10/21 02:30:15;;;;;;;52.20;31.33;;;;;;;12.91;100.00;99036.94;1761295;81;21026;-70
2023/10/21 02:32:45;;;;;;;46.92;30.48;;;;;;;12.92;100.00;99044.11;1761570;81;21034;-69
2023/10/21 02:35:15;;;;;;;51.90;31.60;;;;;;;12.92;100.00;99042.73;1761754;81;21046;-70
2023/10/21 02:37:44;;;;;;;49.75;30.48;;;;;;;12.90;100.00;99034.73;1761503;81;21062;-69
2023/10/21 02:40:16;;;;;;;51.28;31.15;;;;;;;12.89;100.00;99038.56;1761775;81;21046;-70
2023/10/21 02:42:45;;;;;;;62.38;33.02;;;;;;;12.89;100.00;99053.68;1761868;81;21020;-71
2023/10/21 02:45:15;;;;;;;55.90;32.00;;;;;;;12.90;100.00;99055.34;1761571;81;21638;-70
2023/10/21 02:47:44;;;;;;;54.35;31.80;;;;;;;12.90;100.00;99063.59;1761280;81;21011;-71
2023/10/21 02:50:14;;;;;;;62.60;34.05;;;;;;;12.91;100.00;99069.39;1761824;80;21015;-70
2023/10/21 02:52:43;;;;;;;57.55;32.53;;;;;;;12.92;100.00;99068.31;1761606;81;21506;-70
2023/10/21 02:55:12;;;;;;;66.90;33.67;;;;;;;12.95;100.00;99062.86;1761554;81;21031;-70
2023/10/21 02:57:41;;;;;;;70.67;35.85;;;;;;;12.95;100.00;99065.06;1761615;81;21078;-70
2023/10/21 03:00:15;;;;;;;72.37;35.95;;;;;;;12.95;100.00;99062.31;1761833;81;21031;-70
2023/10/21 03:02:42;;;;;;;72.70;34.65;;;;;;;12.96;100.00;99064.53;1761493;81;20983;-70
2023/10/21 03:05:12;;;;;;;75.50;35.83;;;;;;;12.95;100.00;99067.81;1761578;81;21074;-71
2023/10/21 03:07:40;;;;;;;78.47;36.88;;;;;;;12.97;100.00;99070.32;1761531;81;21036;-70
2023/10/21 03:10:10;;;;;;;73.67;34.98;;;;;;;12.98;100.00;99070.08;1761766;81;21053;-69
2023/10/21 03:12:38;;;;;;;84.50;36.77;;;;;;;12.96;100.00;99068.66;1761831;81;21046;-69
2023/10/21 03:15:10;;;;;;;83.15;35.98;;;;;;;12.97;100.00;99073.91;1761360;81;21012;-70
2023/10/21 03:17:38;;;;;;;77.87;35.63;;;;;;;12.98;100.00;99077.48;1761733;80;21074;-70
2023/10/21 03:20:09;;;;;;;78.45;34.83;;;;;;;12.97;100.00;99083.52;1761751;81;20991;-70
2023/10/21 03:22:38;;;;;;;77.72;34.45;;;;;;;12.95;100.00;99093.94;1761659;80;21530;-70
2023/10/21 03:25:08;;;;;;;68.20;32.45;;;;;;;12.97;100.00;99092.31;1761526;81;21089;-70
2023/10/21 03:27:37;;;;;;;73.87;33.88;;;;;;;12.97;100.00;99105.52;1761709;81;21019;-70
2023/10/21 03:30:07;;;;;;;72.90;32.38;;;;;;;12.94;100.00;99106.55;1761904;81;21026;-70
2023/10/21 03:32:36;;;;;;;68.52;30.90;;;;;;;12.93;100.00;99104.34;1761557;81;21466;-69
2023/10/21 03:35:05;;;;;;;69.77;30.75;;;;;;;12.93;100.00;99098.01;1761655;81;21478;-70
2023/10/21 03:37:34;;;;;;;66.47;29.75;;;;;;;12.93;100.00;99098.01;1761620;81;21038;-69
2023/10/21 03:40:05;;;;;;;70.00;28.87;;;;;;;12.94;100.00;99112.05;1761866;81;21070;-70
2023/10/21 03:42:35;;;;;;;72.20;30.00;;;;;;;12.92;100.00;99119.70;1761584;81;20983;-70
2023/10/21 03:45:07;;;;;;;67.55;28.10;;;;;;;12.88;100.00;99113.86;1761759;81;21010;-71
2023/10/21 03:47:36;;;;;;;72.42;29.55;;;;;;;12.89;100.00;99127.91;1761718;81;21030;-71
2023/10/21 03:50:06;;;;;;;72.17;30.15;;;;;;;12.88;100.00;99116.61;1761530;80;21070;-70
2023/10/21 03:52:35;;;;;;;62.88;27.82;;;;;;;12.86;100.00;99122.05;1761701;81;20983;-70
2023/10/21 03:55:06;;;;;;;72.55;28.38;;;;;;;12.87;100.00;99121.81;1761751;81;21058;-70
2023/10/21 03:57:34;;;;;;;65.03;28.23;;;;;;;12.87;100.00;99117.69;1761514;81;21524;-69
2023/10/21 04:00:05;;;;;;;64.67;27.80;;;;;;;12.88;100.00;99122.11;1739569;81;21042;-68
2023/10/21 04:02:35;;;;;;;67.60;28.40;;;;;;;12.87;100.00;99125.94;1761043;81;21051;-71
2023/10/21 04:05:08;;;;;;;71.20;28.70;;;;;;;12.85;100.00;99128.63;1761797;81;21042;-70
2023/10/21 04:07:36;;;;;;;65.52;27.40;;;;;;;12.83;100.00;99131.63;1761718;81;21450;-71
2023/10/21 04:10:06;;;;;;;65.32;26.77;;;;;;;12.82;100.00;99132.70;1761736;81;21018;-70
2023/10/21 04:12:35;;;;;;;66.50;26.37;;;;;;;12.80;100.00;99132.11;1761570;80;21027;-71
2023/10/21 04:15:08;;;;;;;68.17;27.35;;;;;;;12.80;100.00;99134.86;1761761;81;20999;-68
2023/10/21 04:17:45;;;;;;;65.40;24.75;;;;;;;12.79;100.00;99139.23;1761857;81;21027;-70
2023/10/21 04:20:18;;;;;;;65.22;25.23;;;;;;;12.75;100.00;99129.26;1761797;81;21054;-72
2023/10/21 04:22:47;;;;;;;61.15;24.05;;;;;;;12.74;100.00;99134.45;1745617;82;21105;-69
2023/10/21 04:25:16;;;;;;;55.92;23.83;;;;;;;12.72;100.00;99122.03;1756353;80;21030;-70
2023/10/21 04:27:44;;;;;;;60.17;24.85;;;;;;;12.70;100.00;99125.03;1756332;81;21478;-71
2023/10/21 04:30:13;;;;;;;52.50;22.35;;;;;;;12.70;100.00;99126.41;1756468;82;21070;-70
2023/10/21 04:32:42;;;;;;;51.55;22.15;;;;;;;12.70;100.00;99126.41;1756507;82;21090;-70
2023/10/21 04:35:10;;;;;;;51.50;20.85;;;;;;;12.68;100.00;99125.81;1756693;82;21062;-71
2023/10/21 04:37:39;;;;;;;58.33;21.70;;;;;;;12.65;100.00;99124.92;1756141;82;21087;-70
2023/10/21 04:40:09;;;;;;;51.40;20.70;;;;;;;12.62;100.00;99131.73;1756278;80;20971;-71
2023/10/21 04:42:39;;;;;;;47.85;19.87;;;;;;;12.59;100.00;99140.47;1756330;82;20991;-70
2023/10/21 04:45:09;;;;;;;46.83;18.70;;;;;;;12.56;100.00;99153.84;1756662;82;21019;-69
2023/10/21 04:47:37;;;;;;;36.53;16.65;;;;;;;12.54;100.00;99162.87;1756663;82;21004;-69
2023/10/21 04:50:07;;;;;;;41.00;15.75;;;;;;;12.52;100.00;99163.65;1756671;82;21034;-70
2023/10/21 04:52:38;;;;;;;37.65;15.45;;;;;;;12.49;100.00;99175.95;1756318;81;21034;-70
2023/10/21 04:55:08;;;;;;;30.02;14.18;;;;;;;12.46;100.00;99187.97;1756461;82;21042;-70
2023/10/21 04:57:38;;;;;;;28.38;14.83;;;;;;;12.43;100.00;99184.33;1755788;82;21059;-72
2023/10/21 05:00:09;;;;;;;29.37;14.25;;;;;;;12.40;100.00;99184.80;1756369;81;21023;-71
2023/10/21 05:02:38;;;;;;;28.83;14.03;;;;;;;12.31;100.00;99187.88;1756762;82;20991;-69
2023/10/21 05:05:07;;;;;;;27.50;14.70;;;;;;;12.28;100.00;99188.35;1756266;82;21009;-70
2023/10/21 05:07:37;;;;;;;36.13;20.88;;;;;;;12.29;100.00;99201.55;1756481;82;21402;-71
2023/10/21 05:10:07;;;;;;;26.73;14.30;;;;;;;12.24;100.00;99201.42;1756183;82;21051;-70
2023/10/21 05:12:35;;;;;;;27.02;13.70;;;;;;;12.20;100.00;99205.72;1756165;82;21127;-71
2023/10/21 05:15:05;;;;;;;26.17;13.93;;;;;;;12.17;100.00;99213.06;1756292;80;21022;-70
2023/10/21 05:17:35;;;;;;;26.45;12.58;;;;;;;12.18;100.00;99227.92;1756295;82;21129;-70
2023/10/21 05:20:05;;;;;;;23.57;13.35;;;;;;;12.17;100.00;99233.12;1756404;82;20979;-69
2023/10/21 05:22:33;;;;;;;26.90;13.62;;;;;;;12.15;100.00;99231.68;1774397;80;21030;-71
2023/10/21 05:25:05;;;;;;;22.00;12.20;;;;;;;12.15;100.00;99235.80;1782857;80;21431;-70
2023/10/21 05:27:35;;;;;;;23.22;11.83;;;;;;;12.15;100.00;99238.02;1782902;80;21050;-70
2023/10/21 05:30:04;;;;;;;26.12;12.05;;;;;;;12.17;100.00;99244.64;1782809;80;21469;-70
2023/10/21 05:32:33;;;;;;;22.45;11.70;;;;;;;12.14;100.00;99263.80;1782870;80;21034;-70
2023/10/21 05:35:10;;;;;;;25.23;12.30;;;;;;;12.10;100.00;99262.59;1782701;80;21054;-72
2023/10/21 05:37:36;;;;;;;22.10;11.12;;;;;;;12.08;100.00;99261.99;1782523;80;21105;-71
2023/10/21 05:40:07;;;;;;;23.05;11.28;;;;;;;12.06;100.00;99262.77;1782948;80;21026;-69
2023/10/21 05:42:35;;;;;;;19.77;10.72;;;;;;;12.06;100.00;99265.51;1782707;80;21022;-70
2023/10/21 05:45:05;;;;;;;21.42;11.00;;;;;;;12.05;100.00;99259.18;1782728;80;21453;-70
2023/10/21 05:47:37;;;;;;;19.67;10.72;;;;;;;12.03;100.00;99271.47;1782686;80;21712;-70
2023/10/21 05:50:08;;;;;;;22.30;10.82;;;;;;;11.97;100.00;99280.64;1782682;80;21027;-69
2023/10/21 05:52:37;;;;;;;15.93;9.55;;;;;;;11.96;100.00;99295.44;1782823;80;20999;-71
2023/10/21 05:55:07;;;;;;;19.87;10.63;;;;;;;11.90;100.00;99295.84;1782620;80;21064;-72
2023/10/21 05:57:36;;;;;;;22.30;11.12;;;;;;;11.83;100.00;99302.49;1782818;80;21019;-70
2023/10/21 06:00:07;;;;;;;19.45;10.18;;;;;;;11.82;100.00;99302.19;1782745;80;21178;-71
2023/10/21 06:02:40;;;;;;;16.93;9.23;;;;;;;11.82;100.00;99302.19;1782887;80;21022;-69
2023/10/21 06:05:08;;;;;;;18.67;9.30;;;;;;;11.82;100.00;99310.42;1761660;80;21058;-71
2023/10/21 06:07:37;;;;;;;19.02;9.90;;;;;;;11.83;100.00;99307.98;1782806;80;21074;-70
2023/10/21 06:10:07;;;;;;;18.20;9.68;;;;;;;11.82;100.00;99314.54;1761283;80;21047;-70
2023/10/21 06:12:36;;;;;;;20.25;11.15;;;;;;;11.82;100.00;99313.17;1782647;80;21066;-71
2023/10/21 06:15:07;;;;;;;16.32;9.70;;;;;;;11.83;100.00;99323.08;1782778;80;21454;-70
2023/10/21 06:17:37;;;;;;;18.62;9.15;;;;;;;11.82;100.00;99335.12;1782629;80;21030;-72
2023/10/21 06:20:11;;;;;;;17.92;8.98;;;;;;;11.79;100.00;99341.08;1782768;80;21026;-69
2023/10/21 06:22:37;;;;;;;18.00;9.30;;;;;;;11.76;100.00;99345.09;1782295;79;21086;-70
2023/10/21 06:25:06;;;;;;;16.73;9.60;;;;;;;11.71;100.00;99344.41;1782854;80;21023;-70
2023/10/21 06:27:35;;;;;;;15.60;8.85;;;;;;;11.68;100.00;99342.09;1782675;80;21462;-70
2023/10/21 06:30:07;;;;;;;16.32;8.68;;;;;;;11.66;100.00;99342.86;1782959;80;21066;-71
2023/10/21 06:32:35;;;;;;;17.10;9.43;;;;;;;11.64;100.00;99355.14;1782958;80;21043;-70
2023/10/21 06:35:05;;;;;;;17.57;8.95;;;;;;;11.59;100.00;99358.56;1782801;80;21011;-71
2023/10/21 06:37:34;;;;;;;16.70;9.58;;;;;;;11.56;100.00;99362.30;1782825;80;21030;-70
2023/10/21 06:40:04;;;;;;;17.52;9.25;;;;;;;11.56;100.00;99370.00;1782722;80;21101;-72
2023/10/21 06:42:33;;;;;;;15.38;9.23;;;;;;;11.53;100.00;99366.34;1782743;80;20983;-71
2023/10/21 06:45:02;;;;;;;16.62;8.95;;;;;;;11.55;100.00;99373.81;1782899;80;21026;-71
2023/10/21 06:47:34;;;;;;;16.00;8.53;;;;;;;11.56;100.00;99381.51;1761868;80;21015;-70
2023/10/21 06:50:05;;;;;;;13.80;8.28;;;;;;;11.53;100.00;99374.58;1782789;80;20991;-71
2023/10/21 06:52:33;;;;;;;16.20;8.90;;;;;;;11.52;100.00;99377.55;1782982;80;21023;-70
2023/10/21 06:55:03;;;;;;;15.50;8.40;;;;;;;11.49;100.00;99386.23;1779128;80;20983;-70
2023/10/21 06:57:31;;;;;;;16.32;9.40;;;;;;;11.48;100.00;99384.03;1782697;80;21085;-70
2023/10/21 07:00:00;;;;;;;14.03;8.25;;;;;;;11.45;100.00;99388.59;1782805;80;21070;-71
2023/10/21 07:02:29;;;;;;;15.88;9.05;;;;;;;11.42;100.00;99391.80;1782921;80;21027;-71
2023/10/21 07:04:58;;;;;;;14.40;8.43;;;;;;;11.42;100.00;99395.38;1782872;80;21010;-71
2023/10/21 07:07:29;;;;;;;13.58;8.58;;;;;;;11.44;100.00;99398.73;1782782;80;21082;-68
2023/10/21 07:09:58;;;;;;;16.70;8.25;;;;;;;11.47;100.00;99404.30;1782697;80;21034;-70
2023/10/21 07:12:27;;;;;;;17.17;9.13;;;;;;;11.50;100.00;99398.35;1782781;80;21497;-70
2023/10/21 07:14:56;;;;;;;16.37;8.90;;;;;;;11.50;100.00;99384.63;1782752;80;21102;-69
2023/10/21 07:17:26;;;;;;;15.48;8.45;;;;;;;11.48;100.00;99384.03;1782701;80;21447;-70
2023/10/21 07:19:56;;;;;;;15.03;8.78;;;;;;;11.50;100.00;99384.63;1782579;80;21078;-70
2023/10/21 07:22:24;;;;;;;16.37;8.95;;;;;;;11.54;100.00;99397.36;1782592;79;21007;-72
2023/10/21 07:24:57;;;;;;;16.20;9.28;;;;;;;11.56;100.00;99408.94;1782696;80;21038;-69
2023/10/21 07:27:26;;;;;;;17.02;9.50;;;;;;;11.56;100.00;99418.02;1761029;80;21090;-70
2023/10/21 07:29:55;;;;;;;21.30;11.90;;;;;;;11.59;100.00;99424.41;1782627;80;21071;-71
2023/10/21 07:32:24;;;;;;;30.50;16.07;;;;;;;11.59;100.00;99437.29;1782806;80;21512;-70
2023/10/21 07:34:54;;;;;;;27.58;15.65;;;;;;;11.58;100.00;99448.80;1782507;80;21050;-70
2023/10/21 07:37:22;;;;;;;34.70;16.48;;;;;;;11.58;100.00;99446.59;1782581;80;21096;-70
2023/10/21 07:39:51;;;;;;;28.95;14.10;;;;;;;11.58;100.00;99453.45;1782844;80;21093;-71
2023/10/21 07:42:20;;;;;;;21.40;12.05;;;;;;;11.60;100.00;99444.45;1736907;80;21094;-70
2023/10/21 07:44:49;;;;;;;15.83;9.28;;;;;;;11.58;100.00;99439.73;1782932;80;21038;-71
2023/10/21 07:47:18;;;;;;;24.27;11.93;;;;;;;11.57;100.00;99447.13;1782790;80;21469;-70
2023/10/21 07:49:46;;;;;;;28.73;12.33;;;;;;;11.56;100.00;99448.19;1782668;80;21003;-70
2023/10/21 07:52:15;;;;;;;24.57;12.25;;;;;;;11.53;100.00;99448.64;1782759;80;21430;-70
2023/10/21 07:54:44;;;;;;;18.92;10.00;;;;;;;11.50;100.00;99455.95;1782611;80;21042;-69
2023/10/21 07:57:13;;;;;;;15.05;8.38;;;;;;;11.49;100.00;99459.77;1782749;80;21023;-71
2023/10/21 07:59:41;;;;;;;12.50;8.10;;;;;;;11.49;100.00;99472.11;1782621;80;21175;-69
2023/10/21 08:02:10;;;;;;;16.80;9.53;;;;;;;11.46;100.00;99478.05;1779291;80;21026;-71
2023/10/21 08:04:39;;;;;;;16.30;8.23;;;;;;;11.45;100.00;99479.11;1761405;80;21528;-71
2023/10/21 08:07:09;;;;;;;10.13;6.67;;;;;;;11.41;100.00;99483.37;1782557;80;21023;-70
2023/10/21 08:09:38;;;;;;;14.05;8.10;;;;;;;11.40;100.00;99502.27;1782572;80;21035;-71
2023/10/21 08:12:08;;;;;;;13.13;7.85;;;;;;;11.40;100.00;99515.98;1761536;80;21003;-69
2023/10/21 08:14:40;;;;;;;15.15;7.97;;;;;;;11.41;100.00;99514.91;1783072;80;21496;-70
2023/10/21 08:17:08;;;;;;;15.53;10.15;;;;;;;11.42;100.00;99519.34;1782866;80;21019;-71
2023/10/21 08:19:36;;;;;;;15.85;7.08;;;;;;;11.40;100.00;99523.67;1782631;80;21086;-71
2023/10/21 08:22:05;;;;;;;12.28;7.92;;;;;;;11.38;100.00;99527.70;1780344;80;21050;-71
2023/10/21 08:24:35;;;;;;;11.33;6.67;;;;;;;11.35;100.00;99527.62;1761732;81;20983;-70
2023/10/21 08:27:06;;;;;;;11.78;6.90;;;;;;;11.31;100.00;99528.30;1761631;80;21034;-70
2023/10/21 08:29:34;;;;;;;13.15;7.20;;;;;;;11.29;100.00;99510.69;1761661;81;21022;-73
2023/10/21 08:32:04;;;;;;;12.00;7.03;;;;;;;11.31;100.00;99518.69;1761693;81;20991;-73
2023/10/21 08:34:32;;;;;;;11.45;6.90;;;;;;;11.31;100.00;99520.06;1752542;80;21021;-74
2023/10/21 08:37:01;;;;;;;14.83;8.15;;;;;;;11.34;100.00;99522.36;1713765;82;21063;-74
2023/10/21 08:39:31;;;;;;;17.05;8.80;;;;;;;11.34;100.00;99521.83;1704558;82;21137;-74
2023/10/21 08:42:02;;;;;;;13.22;7.28;;;;;;;11.37;100.00;99533.72;1691306;85;21017;-74
2023/10/21 08:44:34;;;;;;;14.28;8.13;;;;;;;11.40;100.00;99539.29;1690612;85;21570;-75
2023/10/21 08:47:04;;;;;;;14.28;8.18;;;;;;;11.41;100.00;99540.97;1691264;83;21022;-76
2023/10/21 08:49:33;;;;;;;14.50;8.18;;;;;;;11.45;100.00;99547.69;1691069;83;21535;-76
2023/10/21 08:52:03;;;;;;;14.40;8.85;;;;;;;11.46;100.00;99552.11;1675764;85;21540;-75
2023/10/21 08:54:31;;;;;;;14.18;8.00;;;;;;;11.43;100.00;99552.02;1710256;83;21083;-75
2023/10/21 08:57:00;;;;;;;13.38;8.10;;;;;;;11.42;100.00;99548.97;1664255;85;20995;-76
2023/10/21 08:59:29;;;;;;;15.68;9.73;;;;;;;11.44;100.00;99544.64;1709820;84;21016;-71
2023/10/21 09:01:58;;;;;;;13.78;8.35;;;;;;;11.43;100.00;99551.19;1663849;86;21572;-75
2023/10/21 09:04:27;;;;;;;16.75;8.45;;;;;;;11.39;100.00;99556.81;1691030;83;21483;-78
2023/10/21 09:07:00;;;;;;;16.32;9.40;;;;;;;11.36;100.00;99553.98;1664018;86;21051;-74
2023/10/21 09:09:29;;;;;;;14.05;7.85;;;;;;;11.36;100.00;99569.06;1720765;83;21027;-76
2023/10/21 09:12:17;;;;;;;14.83;7.87;;;;;;;11.38;100.00;99569.69;1724501;83;21169;-77
2023/10/21 09:14:57;;;;;;;15.83;8.28;;;;;;;11.38;100.00;99560.09;1724574;83;21038;-76
2023/10/21 09:17:36;;;;;;;16.62;8.60;;;;;;;11.38;100.00;99577.08;1724235;83;21063;-75
2023/10/21 09:20:13;;;;;;;12.73;6.75;;;;;;;11.35;100.00;99572.88;1702842;83;21114;-76
2023/10/21 09:22:43;;;;;;;13.18;6.78;;;;;;;11.34;100.00;99568.98;1723546;83;21174;-76
2023/10/21 09:25:21;;;;;;;13.90;7.08;;;;;;;11.31;100.00;99575.75;1721110;83;21070;-75
2023/10/21 09:27:53;;;;;;;11.50;6.40;;;;;;;11.30;100.00;99576.81;1721598;83;20987;-76
2023/10/21 09:30:30;;;;;;;13.15;6.75;;;;;;;11.29;100.00;99586.64;1721315;83;21442;-75
2023/10/21 09:33:05;;;;;;;13.15;7.50;;;;;;;11.33;100.00;99589.23;1721085;83;21044;-75
2023/10/21 09:35:37;;;;;;;13.60;7.17;;;;;;;11.34;100.00;99588.18;1721433;83;21454;-74
2023/10/21 09:38:17;;;;;;;12.45;6.83;;;;;;;11.33;100.00;99583.23;1721455;83;21059;-77
2023/10/21 09:40:45;;;;;;;13.20;6.53;;;;;;;11.31;100.00;99583.14;1721346;83;21020;-76
2023/10/21 09:43:14;;;;;;;10.65;6.35;;;;;;;11.27;100.00;99586.02;1724958;83;21050;-76
2023/10/21 09:45:44;;;;;;;13.55;6.92;;;;;;;11.27;100.00;99591.50;1722365;83;21146;-77
2023/10/21 09:48:13;;;;;;;11.48;6.70;;;;;;;11.26;100.00;99582.97;1739920;82;21075;-75
2023/10/21 09:50:49;;;;;;;11.05;6.28;;;;;;;11.27;100.00;99587.39;1742874;81;21043;-77
2023/10/21 09:53:20;;;;;;;11.70;6.72;;;;;;;11.24;100.00;99591.95;1742576;81;21031;-78
2023/10/21 09:55:49;;;;;;;11.97;6.30;;;;;;;11.19;100.00;99593.98;1743004;82;21056;-77
2023/10/21 09:58:19;;;;;;;13.80;7.05;;;;;;;11.16;100.00;99611.41;1742437;82;21537;-78
2023/10/21 10:00:48;;;;;;;11.20;6.47;;;;;;;11.17;100.00;99602.13;1740950;82;21025;-77
2023/10/21 10:03:17;;;;;;;12.43;6.87;;;;;;;11.22;100.00;99609.16;1723613;82;21034;-78
2023/10/21 10:05:46;;;;;;;10.53;6.12;;;;;;;11.21;100.00;99608.84;1741735;82;21460;-75
2023/10/21 10:08:16;;;;;;;12.82;6.33;;;;;;;11.18;100.00;99610.66;1737915;82;21080;-75
2023/10/21 10:10:46;;;;;;;10.03;6.12;;;;;;;11.16;100.00;99618.27;1732158;82;21053;-77
2023/10/21 10:13:15;;;;;;;12.68;5.72;;;;;;;11.11;100.00;99626.62;1730256;83;21045;-77
2023/10/21 10:15:43;;;;;;;10.93;5.92;;;;;;;11.13;100.00;99628.30;1730648;82;21077;-77
2023/10/21 10:18:19;;;;;;;10.85;5.72;;;;;;;11.13;100.00;99639.27;1732717;82;21076;-77
2023/10/21 10:20:53;;;;;;;11.00;6.12;;;;;;;11.14;100.00;99649.17;1713135;82;21013;-82
2023/10/21 10:23:26;;;;;;;12.03;6.30;;;;;;;11.12;100.00;99661.73;1737857;82;21060;-73
2023/10/21 10:25:57;;;;;;;10.70;5.62;;;;;;;11.12;100.00;99663.09;1713312;82;21026;-74
2023/10/21 10:28:26;;;;;;;11.03;5.70;;;;;;;11.12;100.00;99661.73;1738167;82;21064;-75
2023/10/21 10:30:56;;;;;;;11.53;5.40;;;;;;;11.06;100.00;99668.92;1738082;82;21157;-75
2023/10/21 10:33:28;;;;;;;10.63;5.85;;;;;;;11.02;100.00;99674.50;1737866;82;21104;-74
2023/10/21 10:35:57;;;;;;;9.63;5.58;;;;;;;11.00;100.00;99682.64;1733030;82;21005;-73
2023/10/21 10:38:35;;;;;;;11.57;5.30;;;;;;;10.98;100.00;99691.08;1730152;82;21065;-74
2023/10/21 10:41:18;;;;;;;12.85;6.20;;;;;;;10.98;100.00;99690.23;1730309;83;21092;-75
2023/10/21 10:44:02;;;;;;;12.00;6.00;;;;;;;10.98;100.00;99681.48;1729288;82;21012;-72
2023/10/21 10:46:28;;;;;;;11.15;5.78;;;;;;;10.99;100.00;99696.03;1711014;82;21040;-75
2023/10/21 10:49:05;;;;;;;13.15;5.92;;;;;;;11.00;100.00;99697.71;1728607;82;21087;-75
2023/10/21 10:51:30;;;;;;;11.95;5.97;;;;;;;11.02;100.00;99699.17;1728636;82;21028;-74
2023/10/21 10:54:00;;;;;;;11.68;6.37;;;;;;;11.03;100.00;99704.13;1728889;83;21040;-76
2023/10/21 10:56:49;;;;;;;16.35;6.05;;;;;;;11.02;100.00;99695.06;1728687;83;21048;-75
2023/10/21 10:59:18;;;;;;;16.65;7.50;;;;;;;10.98;100.00;99684.23;1728424;83;21040;-73
2023/10/21 11:02:01;;;;;;;12.15;6.03;;;;;;;10.97;100.00;99691.30;1709819;83;21083;-76
2023/10/21 11:04:32;;;;;;;11.68;5.92;;;;;;;10.94;100.00;99699.42;1728497;83;21000;-75
2023/10/21 11:07:03;;;;;;;11.73;6.35;;;;;;;10.92;100.00;99704.28;1710912;83;21059;-73
2023/10/21 11:09:32;;;;;;;11.68;6.10;;;;;;;10.88;100.00;99697.55;1735342;82;21081;-74
2023/10/21 11:12:01;;;;;;;12.90;6.15;;;;;;;10.83;100.00;99702.00;1745182;81;21050;-74
2023/10/21 11:14:31;;;;;;;15.65;6.50;;;;;;;10.78;100.00;99700.75;1719091;82;21117;-74
2023/10/21 11:17:02;;;;;;;14.47;8.15;;;;;;;10.82;100.00;99710.75;1745523;82;21076;-74
2023/10/21 11:19:32;;;;;;;17.65;7.45;;;;;;;10.88;100.00;99715.89;1745550;82;21018;-73
2023/10/21 11:22:07;;;;;;;13.48;6.85;;;;;;;10.88;100.00;99722.75;1744953;82;21134;-74
2023/10/21 11:24:32;;;;;;;15.15;6.92;;;;;;;10.87;100.00;99734.23;1766895;81;21098;-76